createdAt,value
2018-03-06T00:01:37.891Z,39.00
2018-03-06T00:04:05.582Z,39.00
2018-03-06T00:06:34.023Z,39.00
2018-03-06T00:09:01.761Z,38.90
2018-03-06T00:11:29.440Z,38.90
2018-03-06T00:13:57.149Z,39.00
2018-03-06T00:16:24.882Z,39.10
2018-03-06T00:18:52.591Z,39.20
2018-03-06T00:21:21.059Z,39.40
2018-03-06T00:23:48.772Z,39.40
2018-03-06T00:26:16.490Z,39.30
2018-03-06T00:28:44.954Z,39.40
2018-03-06T00:31:12.647Z,39.40
2018-03-06T00:33:41.122Z,39.60
2018-03-06T00:36:09.590Z,39.60
2018-03-06T00:38:37.295Z,39.60
2018-03-06T00:41:05.000Z,39.60
2018-03-06T00:43:32.700Z,39.80
2018-03-06T00:46:00.375Z,39.80
2018-03-06T00:48:28.047Z,39.90
2018-03-06T00:50:56.570Z,40.00
2018-03-06T00:53:24.285Z,40.00
2018-03-06T00:55:51.999Z,40.10
2018-03-06T00:58:20.449Z,40.20
2018-03-06T01:00:48.174Z,40.20
2018-03-06T01:03:15.870Z,40.30
2018-03-06T01:05:43.567Z,41.00
2018-03-06T01:08:12.066Z,40.50
2018-03-06T01:10:39.805Z,40.40
2018-03-06T01:13:07.668Z,40.40
2018-03-06T01:15:36.175Z,40.40
2018-03-06T01:18:03.885Z,40.40
2018-03-06T01:20:31.660Z,40.40
2018-03-06T01:22:59.973Z,40.50
2018-03-06T01:25:28.489Z,40.60
2018-03-06T01:27:56.217Z,40.60
2018-03-06T01:30:24.674Z,40.70
2018-03-06T01:32:53.155Z,40.70
2018-03-06T01:35:21.661Z,40.70
2018-03-06T01:37:49.401Z,40.70
2018-03-06T01:40:17.876Z,40.70
2018-03-06T01:42:46.347Z,40.70
2018-03-06T01:45:14.065Z,40.70
2018-03-06T01:47:41.766Z,40.60
2018-03-06T01:50:09.455Z,40.50
2018-03-06T01:52:37.947Z,40.30
2018-03-06T01:55:05.629Z,40.40
2018-03-06T01:57:33.308Z,40.30
2018-03-06T02:00:01.039Z,40.30
2018-03-06T02:02:29.464Z,40.40
2018-03-06T02:04:57.142Z,40.40
2018-03-06T02:07:24.821Z,40.40
2018-03-06T02:09:52.583Z,40.40
2018-03-06T02:12:21.034Z,40.20
2018-03-06T02:14:48.704Z,40.20
2018-03-06T02:17:16.443Z,40.10
2018-03-06T02:19:44.150Z,40.10
2018-03-06T02:22:11.831Z,40.10
2018-03-06T02:24:39.582Z,40.10
2018-03-06T02:27:08.020Z,40.10
2018-03-06T02:29:35.701Z,40.10
2018-03-06T02:32:04.144Z,40.30
2018-03-06T02:34:31.837Z,40.20
2018-03-06T02:36:59.530Z,40.30
2018-03-06T02:39:27.231Z,40.40
2018-03-06T02:41:54.938Z,40.40
2018-03-06T02:44:22.627Z,40.30
2018-03-06T02:46:50.346Z,40.40
2018-03-06T02:49:18.801Z,40.40
2018-03-06T02:51:46.569Z,40.30
2018-03-06T02:54:14.267Z,40.30
2018-03-06T02:56:42.021Z,40.20
2018-03-06T02:59:10.474Z,40.10
2018-03-06T03:01:38.144Z,40.10
2018-03-06T03:04:05.878Z,40.00
2018-03-06T03:06:33.857Z,39.90
2018-03-06T03:09:01.562Z,39.90
2018-03-06T03:11:30.009Z,39.90
2018-03-06T03:13:57.672Z,39.90
2018-03-06T03:16:25.348Z,39.80
2018-03-06T03:18:53.843Z,39.90
2018-03-06T03:21:21.545Z,39.90
2018-03-06T03:23:49.224Z,39.90
2018-03-06T03:26:16.950Z,40.00
2018-03-06T03:28:44.666Z,40.00
2018-03-06T03:31:12.367Z,40.00
2018-03-06T03:33:40.087Z,40.10
2018-03-06T03:36:08.585Z,40.10
2018-03-06T03:38:37.019Z,40.20
2018-03-06T03:41:04.711Z,40.20
2018-03-06T03:43:32.428Z,40.30
2018-03-06T03:46:00.120Z,40.50
2018-03-06T03:48:27.816Z,40.20
2018-03-06T03:50:55.496Z,40.30
2018-03-06T03:53:23.201Z,40.30
2018-03-06T03:55:50.901Z,40.40
2018-03-06T03:58:19.375Z,40.50
2018-03-06T04:00:47.854Z,40.50
2018-03-06T04:03:15.584Z,40.40
2018-03-06T04:05:43.298Z,40.50
2018-03-06T04:08:10.980Z,40.50
2018-03-06T04:10:38.690Z,40.50
2018-03-06T04:13:07.182Z,40.50
2018-03-06T04:15:35.637Z,40.50
2018-03-06T04:18:04.099Z,40.60
2018-03-06T04:20:31.798Z,40.60
2018-03-06T04:23:00.262Z,40.70
2018-03-06T04:25:28.712Z,40.70
2018-03-06T04:27:56.418Z,40.70
2018-03-06T04:30:25.182Z,40.70
2018-03-06T04:32:52.881Z,40.60
2018-03-06T04:35:20.622Z,40.70
2018-03-06T04:37:49.064Z,40.90
2018-03-06T04:40:16.740Z,40.80
2018-03-06T04:42:44.448Z,40.90
2018-03-06T04:45:12.190Z,40.90
2018-03-06T04:47:40.645Z,41.00
2018-03-06T04:50:09.146Z,41.00
2018-03-06T04:52:37.713Z,41.00
2018-03-06T04:55:06.212Z,41.10
2018-03-06T04:57:33.953Z,41.10
2018-03-06T05:00:01.671Z,41.20
2018-03-06T05:02:29.375Z,41.30
2018-03-06T05:04:57.088Z,41.30
2018-03-06T05:07:24.783Z,41.40
2018-03-06T05:09:52.498Z,41.40
2018-03-06T05:12:20.986Z,41.40
2018-03-06T05:14:48.673Z,41.40
2018-03-06T05:17:16.451Z,41.40
2018-03-06T05:19:44.126Z,41.40
2018-03-06T05:22:11.842Z,41.50
2018-03-06T05:24:39.536Z,41.50
2018-03-06T05:27:07.230Z,41.50
2018-03-06T05:29:34.952Z,41.50
2018-03-06T05:32:02.654Z,41.60
2018-03-06T05:34:31.115Z,41.70
2018-03-06T05:36:58.810Z,41.70
2018-03-06T05:39:26.514Z,41.70
2018-03-06T05:41:54.194Z,41.80
2018-03-06T05:44:21.918Z,41.80
2018-03-06T05:46:49.650Z,41.80
2018-03-06T05:49:17.380Z,41.70
2018-03-06T05:51:45.064Z,41.70
2018-03-06T05:54:13.508Z,41.60
2018-03-06T05:56:41.195Z,41.60
2018-03-06T05:59:09.639Z,41.70
2018-03-06T06:01:38.100Z,41.70
2018-03-06T06:04:05.773Z,41.70
2018-03-06T06:06:33.455Z,41.70
2018-03-06T06:09:01.147Z,41.80
2018-03-06T06:11:28.850Z,41.80
2018-03-06T06:13:56.557Z,41.80
2018-03-06T06:16:24.232Z,41.90
2018-03-06T06:18:51.916Z,42.00
2018-03-06T06:21:20.355Z,42.00
2018-03-06T06:23:48.015Z,42.00
2018-03-06T06:26:15.681Z,42.10
2018-03-06T06:28:43.344Z,42.10
2018-03-06T06:31:11.039Z,42.30
2018-03-06T06:33:39.484Z,42.20
2018-03-06T06:36:07.136Z,42.20
2018-03-06T06:38:34.789Z,42.10
2018-03-06T06:41:02.492Z,42.10
2018-03-06T06:43:30.934Z,42.20
2018-03-06T06:45:59.396Z,42.20
2018-03-06T06:48:27.088Z,42.20
2018-03-06T06:50:54.781Z,42.20
2018-03-06T06:53:22.447Z,42.20
2018-03-06T06:55:50.102Z,42.30
2018-03-06T06:58:18.536Z,42.50
2018-03-06T07:00:46.297Z,42.50
2018-03-06T07:03:13.980Z,42.50
2018-03-06T07:05:41.646Z,42.60
2018-03-06T07:08:09.380Z,42.60
2018-03-06T07:10:37.132Z,42.70
2018-03-06T07:13:04.875Z,42.70
2018-03-06T07:15:32.632Z,42.80
2018-03-06T07:18:00.368Z,42.80
2018-03-06T07:20:28.898Z,42.90
2018-03-06T07:22:56.720Z,42.90
2018-03-06T07:25:24.541Z,42.90
2018-03-06T07:27:52.407Z,43.00
2018-03-06T07:30:20.280Z,43.10
2018-03-06T07:32:48.145Z,43.20
2018-03-06T07:35:15.951Z,43.20
2018-03-06T07:37:43.759Z,43.40
2018-03-06T07:40:11.603Z,43.50
2018-03-06T07:42:39.460Z,43.60
2018-03-06T07:45:07.227Z,43.60
2018-03-06T07:47:34.969Z,43.60
2018-03-06T07:50:02.723Z,43.70
2018-03-06T07:52:30.509Z,43.60
2018-03-06T07:54:58.380Z,43.60
2018-03-06T07:57:26.118Z,43.50
2018-03-06T07:59:53.903Z,43.40
2018-03-06T08:02:21.654Z,43.30
2018-03-06T08:04:49.426Z,43.20
2018-03-06T08:07:17.201Z,43.20
2018-03-06T08:09:44.942Z,43.20
2018-03-06T08:12:12.688Z,43.20
2018-03-06T08:14:40.356Z,43.90
2018-03-06T08:17:08.778Z,43.30
2018-03-06T08:19:36.420Z,43.20
2018-03-06T08:22:04.086Z,43.40
2018-03-06T08:24:31.757Z,43.50
2018-03-06T08:26:59.408Z,43.60
2018-03-06T08:29:27.070Z,43.70
2018-03-06T08:31:54.737Z,43.80
2018-03-06T08:34:22.410Z,43.80
2018-03-06T08:36:50.067Z,43.90
2018-03-06T08:39:17.763Z,44.00
2018-03-06T08:41:45.399Z,44.20
2018-03-06T08:44:13.040Z,44.20
2018-03-06T08:46:40.732Z,44.30
2018-03-06T08:49:08.408Z,44.40
2018-03-06T08:51:36.820Z,44.60
2018-03-06T08:54:04.469Z,44.60
2018-03-06T08:56:32.148Z,44.70
2018-03-06T08:58:59.782Z,44.70
2018-03-06T09:01:28.203Z,44.90
2018-03-06T09:03:55.840Z,44.90
2018-03-06T09:06:23.616Z,45.00
2018-03-06T09:08:52.176Z,45.40
2018-03-06T09:11:19.957Z,45.40
2018-03-06T09:13:47.737Z,45.70
2018-03-06T09:16:15.520Z,46.00
2018-03-06T09:18:43.261Z,46.10
2018-03-06T09:21:11.002Z,46.30
2018-03-06T09:23:38.819Z,46.50
2018-03-06T09:26:07.317Z,46.80
2018-03-06T09:28:35.058Z,46.80
2018-03-06T09:31:03.568Z,47.30
2018-03-06T09:33:31.320Z,47.20
2018-03-06T09:36:00.220Z,47.60
2018-03-06T09:38:27.956Z,47.50
2018-03-06T09:40:56.460Z,47.50
2018-03-06T09:43:24.212Z,47.40
2018-03-06T09:45:52.709Z,47.50
2018-03-06T09:48:20.442Z,47.50
2018-03-06T09:50:48.945Z,47.80
2018-03-06T09:53:16.693Z,47.80
2018-03-06T09:55:45.186Z,48.20
2018-03-06T09:58:12.922Z,48.20
2018-03-06T10:00:41.425Z,48.50
2018-03-06T10:03:09.176Z,48.50
2018-03-06T10:05:37.672Z,48.70
2018-03-06T10:08:05.439Z,48.70
2018-03-06T10:10:33.116Z,48.80
2018-03-06T10:13:00.768Z,49.00
2018-03-06T10:15:28.415Z,49.20
2018-03-06T10:17:56.823Z,49.50
2018-03-06T10:20:24.476Z,49.50
2018-03-06T10:22:52.146Z,49.50
2018-03-06T10:25:19.796Z,49.60
2018-03-06T10:27:47.436Z,49.50
2018-03-06T10:30:15.831Z,49.40
2018-03-06T10:32:43.703Z,49.30
2018-03-06T10:35:12.112Z,49.20
2018-03-06T10:37:39.761Z,49.20
2018-03-06T10:40:07.443Z,49.30
2018-03-06T10:42:35.874Z,49.30
2018-03-06T10:45:03.561Z,49.30
2018-03-06T10:47:31.219Z,49.20
2018-03-06T10:49:58.866Z,49.20
2018-03-06T10:52:26.524Z,49.20
2018-03-06T10:54:54.218Z,49.10
2018-03-06T10:59:55.693Z,49.00
2018-03-06T11:02:29.040Z,49.10
2018-03-06T11:04:56.794Z,49.20
2018-03-06T11:07:24.470Z,49.30
2018-03-06T11:09:52.129Z,49.40
2018-03-06T11:12:19.797Z,49.50
2018-03-06T11:14:47.448Z,49.50
2018-03-06T11:17:15.087Z,49.40
2018-03-06T11:19:43.520Z,49.30
2018-03-06T11:22:11.196Z,49.30
2018-03-06T11:24:38.840Z,49.40
2018-03-06T11:27:06.516Z,49.50
2018-03-06T11:29:34.189Z,49.50
2018-03-06T11:32:02.607Z,49.40
2018-03-06T11:34:30.259Z,49.40
2018-03-06T11:36:57.930Z,49.50
2018-03-06T11:39:25.587Z,49.60
2018-03-06T11:41:53.239Z,49.60
2018-03-06T11:44:21.655Z,49.30
2018-03-06T11:46:49.292Z,49.20
2018-03-06T11:49:16.942Z,49.10
2018-03-06T11:51:44.599Z,48.90
2018-03-06T11:54:12.253Z,49.00
2018-03-06T11:56:39.934Z,49.20
2018-03-06T11:59:07.644Z,49.30
2018-03-06T12:01:35.307Z,49.10
2018-03-06T12:04:02.971Z,49.00
2018-03-06T12:06:31.392Z,48.90
2018-03-06T12:08:59.043Z,48.90
2018-03-06T12:11:26.764Z,48.90
2018-03-06T12:13:54.407Z,49.20
2018-03-06T12:16:22.079Z,49.30
2018-03-06T12:18:49.729Z,49.40
2018-03-06T12:21:17.372Z,49.50
2018-03-06T12:23:45.007Z,49.60
2018-03-06T12:26:12.740Z,49.70
2018-03-06T12:28:41.144Z,50.10
2018-03-06T12:31:08.804Z,50.00
2018-03-06T12:33:36.627Z,50.00
2018-03-06T12:36:04.293Z,49.70
2018-03-06T12:38:31.938Z,49.30
2018-03-06T12:40:59.611Z,49.20
2018-03-06T12:43:27.277Z,49.20
2018-03-06T12:45:54.933Z,49.40
2018-03-06T12:48:22.587Z,49.50
2018-03-06T12:50:50.270Z,49.40
2018-03-06T12:53:18.765Z,48.90
2018-03-06T12:55:46.666Z,49.00
2018-03-06T12:58:14.561Z,48.90
2018-03-06T13:00:59.972Z,49.10
2018-03-06T13:03:27.917Z,49.20
2018-03-06T13:05:56.598Z,49.30
2018-03-06T13:08:25.289Z,49.50
2018-03-06T13:10:53.982Z,49.50
2018-03-06T13:13:21.949Z,49.50
2018-03-06T13:15:50.072Z,49.40
2018-03-06T13:18:18.085Z,49.20
2018-03-06T13:20:46.761Z,49.10
2018-03-06T13:23:15.424Z,48.90
2018-03-06T13:25:43.326Z,48.90
2018-03-06T13:28:11.238Z,48.60
2018-03-06T13:30:39.124Z,48.60
2018-03-06T13:33:07.005Z,48.50
2018-03-06T13:35:35.670Z,48.50
2018-03-06T13:38:03.544Z,48.50
2018-03-06T13:40:31.413Z,48.70
2018-03-06T13:43:00.067Z,49.20
2018-03-06T13:45:27.948Z,49.10
2018-03-06T13:47:55.832Z,49.50
2018-03-06T13:50:24.481Z,49.40
2018-03-06T13:52:52.336Z,49.40
2018-03-06T13:55:20.237Z,49.20
2018-03-06T13:57:48.127Z,49.50
2018-03-06T14:00:16.072Z,48.60
2018-03-06T14:02:43.961Z,48.30
2018-03-06T14:05:11.857Z,48.10
2018-03-06T14:07:39.703Z,48.00
2018-03-06T14:10:08.460Z,47.90
2018-03-06T14:12:37.118Z,48.00
2018-03-06T14:15:05.045Z,47.90
2018-03-06T14:20:06.916Z,47.80
2018-03-06T14:22:34.815Z,47.60
2018-03-06T14:25:02.751Z,47.30
2018-03-06T14:27:30.652Z,47.20
2018-03-06T14:29:58.543Z,47.10
2018-03-06T14:32:26.386Z,47.00
2018-03-06T14:34:54.265Z,46.80
2018-03-06T14:37:22.204Z,46.70
2018-03-06T14:39:50.078Z,46.70
2018-03-06T14:42:17.973Z,46.30
2018-03-06T14:44:45.864Z,46.20
2018-03-06T14:47:14.570Z,46.30
2018-03-06T14:49:42.472Z,46.20
2018-03-06T14:52:10.357Z,46.20
2018-03-06T14:54:38.215Z,46.00
2018-03-06T14:57:06.144Z,45.80
2018-03-06T14:59:34.046Z,45.70
2018-03-06T15:02:01.938Z,45.60
2018-03-06T15:04:30.656Z,45.60
2018-03-06T15:06:58.542Z,45.50
2018-03-06T15:09:26.400Z,45.30
2018-03-06T15:11:54.345Z,45.20
2018-03-06T15:14:22.255Z,45.00
2018-03-06T15:16:50.151Z,44.70
2018-03-06T15:19:18.794Z,44.60
2018-03-06T15:21:46.694Z,44.50
2018-03-06T15:24:15.365Z,44.70
2018-03-06T15:26:43.289Z,44.70
2018-03-06T15:29:11.179Z,44.50
2018-03-06T15:31:39.197Z,44.50
2018-03-06T15:34:07.059Z,44.70
2018-03-06T15:36:35.754Z,45.70
2018-03-06T15:39:03.770Z,45.00
2018-03-06T15:41:33.200Z,46.20
2018-03-06T15:44:01.850Z,45.50
2018-03-06T15:46:29.754Z,45.40
2018-03-06T15:48:58.406Z,45.70
2018-03-06T15:51:27.041Z,45.70
2018-03-06T15:53:54.955Z,46.10
2018-03-06T15:56:22.842Z,45.70
2018-03-06T15:58:50.718Z,45.80
2018-03-06T16:01:19.369Z,45.90
2018-03-06T16:03:47.301Z,45.90
2018-03-06T16:06:15.167Z,45.70
2018-03-06T16:08:43.071Z,45.50
2018-03-06T16:11:11.009Z,45.30
2018-03-06T16:13:38.913Z,45.40
2018-03-06T16:16:06.794Z,45.30
2018-03-06T16:18:35.435Z,45.20
2018-03-06T16:21:03.402Z,45.20
2018-03-06T16:23:31.308Z,45.20
2018-03-06T16:26:00.047Z,44.90
2018-03-06T16:28:28.004Z,44.90
2018-03-06T16:30:55.971Z,44.70
2018-03-06T16:33:24.720Z,44.40
2018-03-06T16:35:53.456Z,44.30
2018-03-06T16:38:21.466Z,44.20
2018-03-06T16:40:50.220Z,44.00
2018-03-06T16:43:18.243Z,43.90
2018-03-06T16:45:46.188Z,43.80
2018-03-06T16:48:15.030Z,43.90
2018-03-06T16:50:43.004Z,43.70
2018-03-06T16:53:10.992Z,43.70
2018-03-06T16:55:39.052Z,43.50
2018-03-06T16:58:07.041Z,43.50
2018-03-06T17:00:35.739Z,43.50
2018-03-06T17:03:04.537Z,43.50
2018-03-06T17:05:32.519Z,43.40
2018-03-06T17:08:00.472Z,43.40
2018-03-06T17:10:28.483Z,43.50
2018-03-06T17:12:56.365Z,43.40
2018-03-06T17:15:24.261Z,43.40
2018-03-06T17:17:52.898Z,43.40
2018-03-06T17:20:20.751Z,43.40
2018-03-06T17:22:48.608Z,43.30
2018-03-06T17:25:16.513Z,43.20
2018-03-06T17:27:44.414Z,43.10
2018-03-06T17:30:13.085Z,43.00
2018-03-06T17:32:40.989Z,43.00
2018-03-06T17:35:08.835Z,43.20
2018-03-06T17:37:37.477Z,42.90
2018-03-06T17:40:06.299Z,42.90
2018-03-06T17:42:34.950Z,43.00
2018-03-06T17:45:02.908Z,43.00
2018-03-06T17:47:30.805Z,42.90
2018-03-06T17:49:58.681Z,43.60
2018-03-06T17:52:27.384Z,43.10
2018-03-06T17:54:55.284Z,43.10
2018-03-06T17:57:23.139Z,43.20
2018-03-06T17:59:51.020Z,43.20
2018-03-06T18:02:18.862Z,43.30
2018-03-06T18:04:46.786Z,43.40
2018-03-06T18:07:14.764Z,43.40
2018-03-06T18:09:43.402Z,43.50
2018-03-06T18:12:11.351Z,43.50
2018-03-06T18:14:39.207Z,43.50
2018-03-06T18:17:07.117Z,43.50
2018-03-06T18:19:34.987Z,43.40
2018-03-06T18:22:02.883Z,43.40
2018-03-06T18:24:31.551Z,43.50
2018-03-06T18:26:59.481Z,43.50
2018-03-06T18:29:27.378Z,43.50
2018-03-06T18:31:55.497Z,43.50
2018-03-06T18:34:23.399Z,43.40
2018-03-06T18:36:51.359Z,43.40
2018-03-06T18:39:19.249Z,43.40
2018-03-06T18:41:47.162Z,43.40
2018-03-06T18:44:15.034Z,43.30
2018-03-06T18:46:42.974Z,43.20
2018-03-06T18:49:11.656Z,43.10
2018-03-06T18:51:40.327Z,43.10
2018-03-06T18:54:08.996Z,43.10
2018-03-06T18:56:36.883Z,43.10
2018-03-06T18:59:05.570Z,43.10
2018-03-06T19:01:58.692Z,43.10
2018-03-06T19:04:38.403Z,43.10
2018-03-06T19:07:07.377Z,43.10
2018-03-06T19:09:35.312Z,43.10
2018-03-06T19:12:03.201Z,43.10
2018-03-06T19:14:31.837Z,43.00
2018-03-06T19:16:59.789Z,42.90
2018-03-06T19:19:27.685Z,42.90
2018-03-06T19:21:55.526Z,42.90
2018-03-06T19:24:23.462Z,42.90
2018-03-06T19:26:51.338Z,42.90
2018-03-06T19:29:19.218Z,43.00
2018-03-06T19:31:47.097Z,43.10
2018-03-06T19:34:15.005Z,43.00
2018-03-06T19:36:43.637Z,43.00
2018-03-06T19:39:11.580Z,43.00
2018-03-06T19:41:39.482Z,42.90
2018-03-06T19:44:07.427Z,42.90
2018-03-06T19:46:35.316Z,42.90
2018-03-06T19:49:03.220Z,42.80
2018-03-06T19:51:31.947Z,42.90
2018-03-06T19:53:59.889Z,42.70
2018-03-06T19:56:27.781Z,42.90
2018-03-06T19:58:55.750Z,42.80
2018-03-06T20:01:23.661Z,42.80
2018-03-06T20:03:51.584Z,42.70
2018-03-06T20:06:20.425Z,42.70
2018-03-06T20:08:49.086Z,42.60
2018-03-06T20:13:51.991Z,42.60
2018-03-06T20:16:19.885Z,42.60
2018-03-06T20:18:47.818Z,42.60
2018-03-06T20:21:15.758Z,42.60
2018-03-06T20:23:43.674Z,42.60
2018-03-06T20:26:12.344Z,42.60
2018-03-06T20:28:40.310Z,42.50
2018-03-06T20:31:14.095Z,42.60
2018-03-06T20:33:42.028Z,42.70
2018-03-06T20:36:09.948Z,42.70
2018-03-06T20:38:44.391Z,42.70
2018-03-06T20:41:13.047Z,42.70
2018-03-06T20:43:40.901Z,42.70
2018-03-06T20:46:14.450Z,42.70
2018-03-06T20:48:43.198Z,43.40
2018-03-06T20:51:11.180Z,42.70
2018-03-06T20:56:39.209Z,42.50
2018-03-06T20:59:07.110Z,42.50
2018-03-06T21:01:35.012Z,42.40
2018-03-06T21:04:04.784Z,42.50
2018-03-06T21:06:32.822Z,42.50
2018-03-06T21:09:00.805Z,42.50
2018-03-06T21:11:28.834Z,42.60
2018-03-06T21:13:57.691Z,42.60
2018-03-06T21:16:26.545Z,42.60
2018-03-06T21:18:55.677Z,42.60
2018-03-06T21:21:23.880Z,42.60
2018-03-06T21:23:51.971Z,42.60
2018-03-06T21:26:20.121Z,42.60
2018-03-06T21:28:49.162Z,42.60
2018-03-06T21:31:17.243Z,42.60
2018-03-06T21:33:46.021Z,42.50
2018-03-06T21:36:14.099Z,42.50
2018-03-06T21:38:42.185Z,42.50
2018-03-06T21:41:10.172Z,42.50
2018-03-06T21:43:40.032Z,42.50
2018-03-06T21:46:07.947Z,42.50
2018-03-06T21:48:38.142Z,42.50
2018-03-06T21:51:05.911Z,42.50
2018-03-06T21:53:34.595Z,42.60
2018-03-06T21:56:02.460Z,42.70
2018-03-06T21:58:31.252Z,42.70
2018-03-06T22:01:02.054Z,42.70
2018-03-06T22:03:31.209Z,42.80
2018-03-06T22:05:59.822Z,42.80
2018-03-06T22:08:27.748Z,43.40
2018-03-06T22:10:56.438Z,42.80
2018-03-06T22:13:25.125Z,42.80
2018-03-06T22:15:53.066Z,42.70
2018-03-06T22:18:20.973Z,42.80
2018-03-06T22:20:48.838Z,42.80
2018-03-06T22:23:16.768Z,42.70
2018-03-06T22:25:44.667Z,42.60
2018-03-06T22:28:12.539Z,43.20
2018-03-06T22:30:40.336Z,42.50
2018-03-06T22:33:08.125Z,42.40
2018-03-06T22:35:36.683Z,42.30
2018-03-06T22:38:04.447Z,42.90
2018-03-06T22:40:32.206Z,42.20
2018-03-06T22:43:00.014Z,42.10
2018-03-06T22:45:28.520Z,41.90
2018-03-06T22:47:56.306Z,41.80
2018-03-06T22:50:24.064Z,41.80
2018-03-06T22:52:51.852Z,41.70
2018-03-06T22:55:19.627Z,41.70
2018-03-06T22:57:47.386Z,41.70
2018-03-06T23:00:15.185Z,41.60
2018-03-06T23:02:42.972Z,41.50
2018-03-06T23:05:10.761Z,41.50
2018-03-06T23:07:39.359Z,41.50
2018-03-06T23:10:07.107Z,41.40
2018-03-06T23:12:35.700Z,41.50
2018-03-06T23:15:03.505Z,41.50
2018-03-06T23:17:31.263Z,41.60
2018-03-06T23:19:59.808Z,41.60
2018-03-06T23:22:27.564Z,41.50
2018-03-06T23:24:55.243Z,41.60
2018-03-06T23:27:22.916Z,41.60
2018-03-06T23:29:50.566Z,41.50
2018-03-06T23:32:18.228Z,41.40
2018-03-06T23:34:45.907Z,41.30
2018-03-06T23:37:14.319Z,41.10
2018-03-06T23:39:41.958Z,40.90
2018-03-06T23:42:10.388Z,41.00
2018-03-06T23:44:38.036Z,41.00
2018-03-06T23:47:05.679Z,41.00
2018-03-06T23:49:33.365Z,41.00
2018-03-06T23:52:01.021Z,40.90
2018-03-06T23:54:28.657Z,40.90
2018-03-06T23:56:56.297Z,40.70
2018-03-06T23:59:24.721Z,40.40
